sensor_id;sensor_type;location;lat;lon;timestamp;P1;durP1;ratioP1;P2;durP2;ratioP2
2129;SDS011;1071;52.544;13.374;2022-11-06T00:01:34;6.55;;;4.57;;
2129;SDS011;1071;52.544;13.374;2022-11-06T00:04:04;8.38;;;5.05;;
2129;SDS011;1071;52.544;13.374;2022-11-06T00:06:32;7.32;;;5.35;;
2129;SDS011;1071;52.544;13.374;2022-11-06T00:09:15;10.00;;;5.57;;
2129;SDS011;1071;52.544;13.374;2022-11-06T00:11:46;11.55;;;5.03;;
2129;SDS011;1071;52.544;13.374;2022-11-06T00:14:14;4.53;;;4.10;;
2129;SDS011;1071;52.544;13.374;2022-11-06T00:16:42;6.75;;;4.93;;
2129;SDS011;1071;52.544;13.374;2022-11-06T00:19:10;7.60;;;5.25;;
2129;SDS011;1071;52.544;13.374;2022-11-06T00:21:39;8.75;;;5.75;;
2129;SDS011;1071;52.544;13.374;2022-11-06T00:24:06;10.20;;;5.45;;
2129;SDS011;1071;52.544;13.374;2022-11-06T00:26:42;6.75;;;5.40;;
2129;SDS011;1071;52.544;13.374;2022-11-06T00:29:13;8.38;;;6.70;;
2129;SDS011;1071;52.544;13.374;2022-11-06T00:31:41;5.50;;;5.00;;
2129;SDS011;1071;52.544;13.374;2022-11-06T00:34:09;14.02;;;5.68;;
2129;SDS011;1071;52.544;13.374;2022-11-06T00:36:36;9.70;;;6.40;;
2129;SDS011;1071;52.544;13.374;2022-11-06T00:39:03;8.35;;;5.95;;
2129;SDS011;1071;52.544;13.374;2022-11-06T00:41:31;8.07;;;6.50;;
2129;SDS011;1071;52.544;13.374;2022-11-06T00:43:58;7.25;;;6.57;;
2129;SDS011;1071;52.544;13.374;2022-11-06T00:46:28;10.25;;;4.88;;
2129;SDS011;1071;52.544;13.374;2022-11-06T00:48:58;5.35;;;4.85;;
2129;SDS011;1071;52.544;13.374;2022-11-06T00:51:26;7.72;;;5.60;;
2129;SDS011;1071;52.544;13.374;2022-11-06T00:53:58;7.55;;;5.50;;
2129;SDS011;1071;52.544;13.374;2022-11-06T00:56:28;6.00;;;5.40;;
2129;SDS011;1071;52.544;13.374;2022-11-06T00:58:57;6.05;;;5.45;;
2129;SDS011;1071;52.544;13.374;2022-11-06T01:01:26;8.70;;;5.40;;
2129;SDS011;1071;52.544;13.374;2022-11-06T01:03:56;7.80;;;5.43;;
2129;SDS011;1071;52.544;13.374;2022-11-06T01:06:25;8.07;;;5.65;;
2129;SDS011;1071;52.544;13.374;2022-11-06T01:08:53;8.15;;;6.13;;
2129;SDS011;1071;52.544;13.374;2022-11-06T01:11:21;9.15;;;5.80;;
2129;SDS011;1071;52.544;13.374;2022-11-06T01:13:50;7.65;;;6.05;;
2129;SDS011;1071;52.544;13.374;2022-11-06T01:16:22;6.55;;;5.70;;
2129;SDS011;1071;52.544;13.374;2022-11-06T01:18:52;6.97;;;5.40;;
2129;SDS011;1071;52.544;13.374;2022-11-06T01:21:23;7.70;;;6.90;;
2129;SDS011;1071;52.544;13.374;2022-11-06T01:23:54;12.73;;;6.20;;
2129;SDS011;1071;52.544;13.374;2022-11-06T01:26:25;6.28;;;5.35;;
2129;SDS011;1071;52.544;13.374;2022-11-06T01:29:02;6.20;;;5.20;;
2129;SDS011;1071;52.544;13.374;2022-11-06T01:31:30;9.10;;;5.40;;
2129;SDS011;1071;52.544;13.374;2022-11-06T01:34:01;7.03;;;5.82;;
2129;SDS011;1071;52.544;13.374;2022-11-06T01:36:31;15.43;;;6.18;;
2129;SDS011;1071;52.544;13.374;2022-11-06T01:39:06;5.88;;;5.25;;
2129;SDS011;1071;52.544;13.374;2022-11-06T01:41:36;9.73;;;6.18;;
2129;SDS011;1071;52.544;13.374;2022-11-06T01:44:05;13.15;;;5.90;;
2129;SDS011;1071;52.544;13.374;2022-11-06T01:46:48;5.57;;;5.00;;
2129;SDS011;1071;52.544;13.374;2022-11-06T01:49:16;6.78;;;5.70;;
2129;SDS011;1071;52.544;13.374;2022-11-06T01:51:46;8.30;;;5.72;;
2129;SDS011;1071;52.544;13.374;2022-11-06T01:54:17;6.63;;;6.03;;
2129;SDS011;1071;52.544;13.374;2022-11-06T01:56:47;7.75;;;5.78;;
2129;SDS011;1071;52.544;13.374;2022-11-06T01:59:18;8.77;;;5.78;;
2129;SDS011;1071;52.544;13.374;2022-11-06T02:01:52;5.50;;;5.00;;
2129;SDS011;1071;52.544;13.374;2022-11-06T02:04:21;8.13;;;5.65;;
2129;SDS011;1071;52.544;13.374;2022-11-06T02:06:52;11.15;;;8.00;;
2129;SDS011;1071;52.544;13.374;2022-11-06T02:09:27;7.95;;;7.15;;
2129;SDS011;1071;52.544;13.374;2022-11-06T02:11:58;7.43;;;6.20;;
2129;SDS011;1071;52.544;13.374;2022-11-06T02:14:31;9.27;;;6.07;;
2129;SDS011;1071;52.544;13.374;2022-11-06T02:17:07;8.70;;;7.55;;
2129;SDS011;1071;52.544;13.374;2022-11-06T02:19:54;7.85;;;5.80;;
2129;SDS011;1071;52.544;13.374;2022-11-06T02:22:43;7.28;;;6.57;;
2129;SDS011;1071;52.544;13.374;2022-11-06T02:25:29;6.82;;;6.18;;
2129;SDS011;1071;52.544;13.374;2022-11-06T02:28:13;9.35;;;7.25;;
2129;SDS011;1071;52.544;13.374;2022-11-06T02:30:48;12.15;;;7.00;;
2129;SDS011;1071;52.544;13.374;2022-11-06T02:33:17;11.77;;;6.20;;
2129;SDS011;1071;52.544;13.374;2022-11-06T02:35:49;9.02;;;6.28;;
2129;SDS011;1071;52.544;13.374;2022-11-06T02:38:21;7.40;;;6.55;;
2129;SDS011;1071;52.544;13.374;2022-11-06T02:40:51;5.57;;;5.05;;
2129;SDS011;1071;52.544;13.374;2022-11-06T02:43:23;8.68;;;6.28;;
2129;SDS011;1071;52.544;13.374;2022-11-06T02:45:57;9.50;;;7.72;;
2129;SDS011;1071;52.544;13.374;2022-11-06T02:48:30;11.88;;;6.18;;
2129;SDS011;1071;52.544;13.374;2022-11-06T02:51:03;11.77;;;8.55;;
2129;SDS011;1071;52.544;13.374;2022-11-06T02:53:31;7.38;;;6.20;;
2129;SDS011;1071;52.544;13.374;2022-11-06T02:56:01;10.65;;;6.93;;
2129;SDS011;1071;52.544;13.374;2022-11-06T02:58:34;10.40;;;7.03;;
2129;SDS011;1071;52.544;13.374;2022-11-06T03:01:11;12.40;;;5.93;;
2129;SDS011;1071;52.544;13.374;2022-11-06T03:03:45;8.57;;;7.78;;
2129;SDS011;1071;52.544;13.374;2022-11-06T03:06:17;8.23;;;7.20;;
2129;SDS011;1071;52.544;13.374;2022-11-06T03:08:52;7.50;;;6.75;;
2129;SDS011;1071;52.544;13.374;2022-11-06T03:11:24;7.40;;;6.70;;
2129;SDS011;1071;52.544;13.374;2022-11-06T03:13:57;9.88;;;7.28;;
2129;SDS011;1071;52.544;13.374;2022-11-06T03:16:32;7.65;;;6.25;;
2129;SDS011;1071;52.544;13.374;2022-11-06T03:19:10;6.25;;;5.70;;
2129;SDS011;1071;52.544;13.374;2022-11-06T03:21:50;8.50;;;6.80;;
2129;SDS011;1071;52.544;13.374;2022-11-06T03:24:27;8.38;;;6.57;;
2129;SDS011;1071;52.544;13.374;2022-11-06T03:27:00;6.82;;;6.05;;
2129;SDS011;1071;52.544;13.374;2022-11-06T03:29:35;8.30;;;6.30;;
2129;SDS011;1071;52.544;13.374;2022-11-06T03:32:07;8.20;;;6.53;;
2129;SDS011;1071;52.544;13.374;2022-11-06T03:34:41;8.48;;;6.18;;
2129;SDS011;1071;52.544;13.374;2022-11-06T03:37:12;9.65;;;6.78;;
2129;SDS011;1071;52.544;13.374;2022-11-06T03:39:43;13.18;;;8.50;;
2129;SDS011;1071;52.544;13.374;2022-11-06T03:42:17;9.20;;;6.50;;
2129;SDS011;1071;52.544;13.374;2022-11-06T03:44:50;8.90;;;6.45;;
2129;SDS011;1071;52.544;13.374;2022-11-06T03:47:22;12.15;;;7.38;;
2129;SDS011;1071;52.544;13.374;2022-11-06T03:49:53;9.15;;;6.82;;
2129;SDS011;1071;52.544;13.374;2022-11-06T03:52:23;9.60;;;7.50;;
2129;SDS011;1071;52.544;13.374;2022-11-06T03:54:56;6.97;;;6.00;;
2129;SDS011;1071;52.544;13.374;2022-11-06T03:57:28;7.60;;;6.13;;
2129;SDS011;1071;52.544;13.374;2022-11-06T04:00:04;9.77;;;6.78;;
2129;SDS011;1071;52.544;13.374;2022-11-06T04:02:33;11.32;;;7.32;;
2129;SDS011;1071;52.544;13.374;2022-11-06T04:05:04;9.82;;;6.80;;
2129;SDS011;1071;52.544;13.374;2022-11-06T04:07:36;7.40;;;6.70;;
2129;SDS011;1071;52.544;13.374;2022-11-06T04:10:08;8.13;;;7.30;;
2129;SDS011;1071;52.544;13.374;2022-11-06T04:12:54;6.60;;;6.00;;
2129;SDS011;1071;52.544;13.374;2022-11-06T04:15:43;9.38;;;6.63;;
2129;SDS011;1071;52.544;13.374;2022-11-06T04:18:16;10.40;;;8.15;;
2129;SDS011;1071;52.544;13.374;2022-11-06T04:20:46;11.02;;;7.60;;
2129;SDS011;1071;52.544;13.374;2022-11-06T04:23:37;9.55;;;6.88;;
2129;SDS011;1071;52.544;13.374;2022-11-06T04:26:32;9.00;;;6.57;;
2129;SDS011;1071;52.544;13.374;2022-11-06T04:29:07;7.07;;;6.05;;
2129;SDS011;1071;52.544;13.374;2022-11-06T04:31:45;8.95;;;6.32;;
2129;SDS011;1071;52.544;13.374;2022-11-06T04:34:23;9.65;;;6.22;;
2129;SDS011;1071;52.544;13.374;2022-11-06T04:36:58;8.45;;;6.82;;
2129;SDS011;1071;52.544;13.374;2022-11-06T04:39:33;7.45;;;6.57;;
2129;SDS011;1071;52.544;13.374;2022-11-06T04:42:10;7.43;;;6.20;;
2129;SDS011;1071;52.544;13.374;2022-11-06T04:44:42;9.82;;;7.50;;
2129;SDS011;1071;52.544;13.374;2022-11-06T04:47:15;6.95;;;5.82;;
2129;SDS011;1071;52.544;13.374;2022-11-06T04:49:45;7.60;;;6.80;;
2129;SDS011;1071;52.544;13.374;2022-11-06T04:52:17;7.72;;;6.93;;
2129;SDS011;1071;52.544;13.374;2022-11-06T04:54:47;8.85;;;7.95;;
2129;SDS011;1071;52.544;13.374;2022-11-06T04:57:14;6.72;;;5.95;;
2129;SDS011;1071;52.544;13.374;2022-11-06T04:59:41;7.85;;;7.00;;
2129;SDS011;1071;52.544;13.374;2022-11-06T05:02:08;9.65;;;6.78;;
2129;SDS011;1071;52.544;13.374;2022-11-06T05:04:37;8.15;;;6.72;;
2129;SDS011;1071;52.544;13.374;2022-11-06T05:07:04;8.30;;;6.35;;
2129;SDS011;1071;52.544;13.374;2022-11-06T05:09:31;10.25;;;6.68;;
2129;SDS011;1071;52.544;13.374;2022-11-06T05:12:02;9.88;;;7.28;;
2129;SDS011;1071;52.544;13.374;2022-11-06T05:14:30;9.80;;;6.97;;
2129;SDS011;1071;52.544;13.374;2022-11-06T05:16:57;8.55;;;6.75;;
2129;SDS011;1071;52.544;13.374;2022-11-06T05:19:25;8.43;;;6.28;;
2129;SDS011;1071;52.544;13.374;2022-11-06T05:21:53;8.75;;;7.03;;
2129;SDS011;1071;52.544;13.374;2022-11-06T05:24:38;7.68;;;6.97;;
2129;SDS011;1071;52.544;13.374;2022-11-06T05:27:05;7.72;;;6.45;;
2129;SDS011;1071;52.544;13.374;2022-11-06T05:29:32;8.43;;;6.13;;
2129;SDS011;1071;52.544;13.374;2022-11-06T05:31:59;9.75;;;6.50;;
2129;SDS011;1071;52.544;13.374;2022-11-06T05:34:26;7.50;;;6.70;;
2129;SDS011;1071;52.544;13.374;2022-11-06T05:36:55;7.60;;;6.70;;
2129;SDS011;1071;52.544;13.374;2022-11-06T05:39:22;7.35;;;6.60;;
2129;SDS011;1071;52.544;13.374;2022-11-06T05:41:49;7.47;;;6.65;;
2129;SDS011;1071;52.544;13.374;2022-11-06T05:44:16;10.73;;;6.47;;
2129;SDS011;1071;52.544;13.374;2022-11-06T05:46:43;8.65;;;6.70;;
2129;SDS011;1071;52.544;13.374;2022-11-06T05:49:10;10.05;;;6.80;;
2129;SDS011;1071;52.544;13.374;2022-11-06T05:51:37;9.30;;;6.85;;
2129;SDS011;1071;52.544;13.374;2022-11-06T05:54:06;9.07;;;7.28;;
2129;SDS011;1071;52.544;13.374;2022-11-06T05:56:33;6.60;;;5.90;;
2129;SDS011;1071;52.544;13.374;2022-11-06T05:59:00;7.32;;;6.60;;
2129;SDS011;1071;52.544;13.374;2022-11-06T06:01:27;9.05;;;7.03;;
2129;SDS011;1071;52.544;13.374;2022-11-06T06:03:54;7.75;;;6.50;;
2129;SDS011;1071;52.544;13.374;2022-11-06T06:06:21;7.60;;;6.25;;
2129;SDS011;1071;52.544;13.374;2022-11-06T06:08:48;9.32;;;6.50;;
2129;SDS011;1071;52.544;13.374;2022-11-06T06:11:16;7.97;;;7.15;;
2129;SDS011;1071;52.544;13.374;2022-11-06T06:13:43;8.65;;;6.82;;
2129;SDS011;1071;52.544;13.374;2022-11-06T06:16:12;10.98;;;7.70;;
2129;SDS011;1071;52.544;13.374;2022-11-06T06:18:39;12.75;;;8.00;;
2129;SDS011;1071;52.544;13.374;2022-11-06T06:21:07;12.13;;;9.85;;
2129;SDS011;1071;52.544;13.374;2022-11-06T06:23:34;17.38;;;10.88;;
2129;SDS011;1071;52.544;13.374;2022-11-06T06:26:01;15.45;;;11.40;;
2129;SDS011;1071;52.544;13.374;2022-11-06T06:28:30;10.85;;;8.10;;
2129;SDS011;1071;52.544;13.374;2022-11-06T06:30:57;7.55;;;6.05;;
2129;SDS011;1071;52.544;13.374;2022-11-06T06:33:25;10.18;;;6.72;;
2129;SDS011;1071;52.544;13.374;2022-11-06T06:35:52;10.07;;;7.15;;
2129;SDS011;1071;52.544;13.374;2022-11-06T06:38:19;9.18;;;6.57;;
2129;SDS011;1071;52.544;13.374;2022-11-06T06:40:47;8.20;;;6.82;;
2129;SDS011;1071;52.544;13.374;2022-11-06T06:43:15;6.88;;;6.07;;
2129;SDS011;1071;52.544;13.374;2022-11-06T06:45:44;8.98;;;6.40;;
2129;SDS011;1071;52.544;13.374;2022-11-06T06:48:22;10.68;;;6.53;;
2129;SDS011;1071;52.544;13.374;2022-11-06T06:50:50;7.63;;;6.82;;
2129;SDS011;1071;52.544;13.374;2022-11-06T06:53:17;9.77;;;7.15;;
2129;SDS011;1071;52.544;13.374;2022-11-06T06:55:44;5.93;;;5.30;;
2129;SDS011;1071;52.544;13.374;2022-11-06T06:58:11;8.73;;;7.40;;
2129;SDS011;1071;52.544;13.374;2022-11-06T07:00:38;8.70;;;7.22;;
2129;SDS011;1071;52.544;13.374;2022-11-06T07:03:07;8.55;;;6.05;;
2129;SDS011;1071;52.544;13.374;2022-11-06T07:05:35;10.25;;;7.32;;
2129;SDS011;1071;52.544;13.374;2022-11-06T07:08:03;9.50;;;7.20;;
2129;SDS011;1071;52.544;13.374;2022-11-06T07:10:30;11.00;;;8.00;;
2129;SDS011;1071;52.544;13.374;2022-11-06T07:12:59;9.38;;;7.60;;
2129;SDS011;1071;52.544;13.374;2022-11-06T07:15:26;8.70;;;7.80;;
2129;SDS011;1071;52.544;13.374;2022-11-06T07:17:53;8.43;;;7.55;;
2129;SDS011;1071;52.544;13.374;2022-11-06T07:20:27;7.22;;;6.53;;
2129;SDS011;1071;52.544;13.374;2022-11-06T07:22:54;8.32;;;6.03;;
2129;SDS011;1071;52.544;13.374;2022-11-06T07:25:22;9.40;;;7.20;;
2129;SDS011;1071;52.544;13.374;2022-11-06T07:27:51;9.45;;;7.20;;
2129;SDS011;1071;52.544;13.374;2022-11-06T07:30:21;8.95;;;7.30;;
2129;SDS011;1071;52.544;13.374;2022-11-06T07:32:48;7.88;;;7.07;;
2129;SDS011;1071;52.544;13.374;2022-11-06T07:35:17;12.40;;;8.55;;
2129;SDS011;1071;52.544;13.374;2022-11-06T07:37:46;12.05;;;7.80;;
2129;SDS011;1071;52.544;13.374;2022-11-06T07:40:13;9.73;;;7.35;;
2129;SDS011;1071;52.544;13.374;2022-11-06T07:42:40;9.18;;;7.15;;
2129;SDS011;1071;52.544;13.374;2022-11-06T07:45:07;7.68;;;6.80;;
2129;SDS011;1071;52.544;13.374;2022-11-06T07:47:34;9.52;;;7.40;;
2129;SDS011;1071;52.544;13.374;2022-11-06T07:50:01;8.45;;;7.35;;
2129;SDS011;1071;52.544;13.374;2022-11-06T07:52:32;11.45;;;7.70;;
2129;SDS011;1071;52.544;13.374;2022-11-06T07:55:00;10.25;;;7.60;;
2129;SDS011;1071;52.544;13.374;2022-11-06T07:57:28;11.20;;;6.93;;
2129;SDS011;1071;52.544;13.374;2022-11-06T07:59:57;12.38;;;7.47;;
2129;SDS011;1071;52.544;13.374;2022-11-06T08:02:24;11.18;;;6.45;;
2129;SDS011;1071;52.544;13.374;2022-11-06T08:04:55;7.25;;;6.63;;
2129;SDS011;1071;52.544;13.374;2022-11-06T08:07:22;7.32;;;6.38;;
2129;SDS011;1071;52.544;13.374;2022-11-06T08:09:49;6.90;;;6.20;;
2129;SDS011;1071;52.544;13.374;2022-11-06T08:12:17;8.38;;;7.07;;
2129;SDS011;1071;52.544;13.374;2022-11-06T08:14:44;9.55;;;8.23;;
2129;SDS011;1071;52.544;13.374;2022-11-06T08:17:11;8.35;;;7.50;;
2129;SDS011;1071;52.544;13.374;2022-11-06T08:19:38;9.80;;;8.02;;
2129;SDS011;1071;52.544;13.374;2022-11-06T08:22:05;8.60;;;6.95;;
2129;SDS011;1071;52.544;13.374;2022-11-06T08:24:33;11.70;;;8.45;;
2129;SDS011;1071;52.544;13.374;2022-11-06T08:26:59;8.48;;;7.25;;
2129;SDS011;1071;52.544;13.374;2022-11-06T08:29:28;6.40;;;5.80;;
2129;SDS011;1071;52.544;13.374;2022-11-06T08:31:55;8.15;;;6.95;;
2129;SDS011;1071;52.544;13.374;2022-11-06T08:34:22;14.77;;;9.45;;
2129;SDS011;1071;52.544;13.374;2022-11-06T08:36:49;9.55;;;8.10;;
2129;SDS011;1071;52.544;13.374;2022-11-06T08:39:17;10.80;;;8.50;;
2129;SDS011;1071;52.544;13.374;2022-11-06T08:41:44;10.52;;;8.10;;
2129;SDS011;1071;52.544;13.374;2022-11-06T08:44:11;9.52;;;8.50;;
2129;SDS011;1071;52.544;13.374;2022-11-06T08:46:42;9.13;;;7.20;;
2129;SDS011;1071;52.544;13.374;2022-11-06T08:49:09;14.25;;;9.23;;
2129;SDS011;1071;52.544;13.374;2022-11-06T08:51:36;9.98;;;8.32;;
2129;SDS011;1071;52.544;13.374;2022-11-06T08:54:03;8.90;;;8.10;;
2129;SDS011;1071;52.544;13.374;2022-11-06T08:56:30;13.43;;;8.05;;
2129;SDS011;1071;52.544;13.374;2022-11-06T08:58:58;11.10;;;8.80;;
2129;SDS011;1071;52.544;13.374;2022-11-06T09:01:28;18.98;;;11.68;;
2129;SDS011;1071;52.544;13.374;2022-11-06T09:03:59;10.45;;;8.63;;
2129;SDS011;1071;52.544;13.374;2022-11-06T09:06:30;13.25;;;9.48;;
2129;SDS011;1071;52.544;13.374;2022-11-06T09:08:57;10.90;;;9.15;;
2129;SDS011;1071;52.544;13.374;2022-11-06T09:11:24;9.88;;;8.13;;
2129;SDS011;1071;52.544;13.374;2022-11-06T09:13:51;8.77;;;7.50;;
2129;SDS011;1071;52.544;13.374;2022-11-06T09:16:19;8.68;;;7.72;;
2129;SDS011;1071;52.544;13.374;2022-11-06T09:18:46;8.20;;;7.40;;
2129;SDS011;1071;52.544;13.374;2022-11-06T09:21:14;7.22;;;6.53;;
2129;SDS011;1071;52.544;13.374;2022-11-06T09:23:41;7.72;;;6.85;;
2129;SDS011;1071;52.544;13.374;2022-11-06T09:26:10;12.63;;;7.70;;
2129;SDS011;1071;52.544;13.374;2022-11-06T09:28:38;9.43;;;8.52;;
2129;SDS011;1071;52.544;13.374;2022-11-06T09:31:05;10.40;;;7.03;;
2129;SDS011;1071;52.544;13.374;2022-11-06T09:33:33;9.75;;;7.20;;
2129;SDS011;1071;52.544;13.374;2022-11-06T09:36:02;7.35;;;6.50;;
2129;SDS011;1071;52.544;13.374;2022-11-06T09:38:31;8.77;;;5.85;;
2129;SDS011;1071;52.544;13.374;2022-11-06T09:40:58;7.68;;;6.30;;
2129;SDS011;1071;52.544;13.374;2022-11-06T09:43:30;7.07;;;6.35;;
2129;SDS011;1071;52.544;13.374;2022-11-06T09:46:12;9.90;;;7.72;;
2129;SDS011;1071;52.544;13.374;2022-11-06T09:48:50;9.35;;;7.50;;
2129;SDS011;1071;52.544;13.374;2022-11-06T09:51:23;13.40;;;8.85;;
2129;SDS011;1071;52.544;13.374;2022-11-06T09:54:02;11.35;;;8.00;;
2129;SDS011;1071;52.544;13.374;2022-11-06T09:56:36;10.65;;;7.60;;
2129;SDS011;1071;52.544;13.374;2022-11-06T09:59:07;8.18;;;7.20;;
2129;SDS011;1071;52.544;13.374;2022-11-06T10:01:39;9.65;;;8.18;;
2129;SDS011;1071;52.544;13.374;2022-11-06T10:04:11;9.23;;;6.78;;
2129;SDS011;1071;52.544;13.374;2022-11-06T10:06:47;8.32;;;6.90;;
2129;SDS011;1071;52.544;13.374;2022-11-06T10:09:15;7.50;;;6.43;;
2129;SDS011;1071;52.544;13.374;2022-11-06T10:11:50;11.55;;;8.00;;
2129;SDS011;1071;52.544;13.374;2022-11-06T10:17:57;13.45;;;7.40;;
2129;SDS011;1071;52.544;13.374;2022-11-06T10:20:31;8.38;;;6.45;;
2129;SDS011;1071;52.544;13.374;2022-11-06T10:23:09;13.02;;;7.88;;
2129;SDS011;1071;52.544;13.374;2022-11-06T10:25:49;13.07;;;8.07;;
2129;SDS011;1071;52.544;13.374;2022-11-06T10:28:35;10.65;;;6.72;;
2129;SDS011;1071;52.544;13.374;2022-11-06T10:31:12;11.30;;;7.80;;
2129;SDS011;1071;52.544;13.374;2022-11-06T10:33:49;14.00;;;9.05;;
2129;SDS011;1071;52.544;13.374;2022-11-06T10:36:23;10.73;;;7.20;;
2129;SDS011;1071;52.544;13.374;2022-11-06T10:38:54;10.20;;;7.78;;
2129;SDS011;1071;52.544;13.374;2022-11-06T10:41:26;6.72;;;6.07;;
2129;SDS011;1071;52.544;13.374;2022-11-06T10:43:59;11.30;;;7.43;;
2129;SDS011;1071;52.544;13.374;2022-11-06T10:46:32;9.13;;;7.38;;
2129;SDS011;1071;52.544;13.374;2022-11-06T10:49:09;6.90;;;6.28;;
2129;SDS011;1071;52.544;13.374;2022-11-06T10:51:45;11.75;;;7.95;;
2129;SDS011;1071;52.544;13.374;2022-11-06T10:54:28;14.57;;;10.43;;
2129;SDS011;1071;52.544;13.374;2022-11-06T10:57:11;9.65;;;7.47;;
2129;SDS011;1071;52.544;13.374;2022-11-06T10:59:48;8.88;;;6.75;;
2129;SDS011;1071;52.544;13.374;2022-11-06T11:02:24;12.50;;;8.60;;
2129;SDS011;1071;52.544;13.374;2022-11-06T11:04:54;13.20;;;11.00;;
2129;SDS011;1071;52.544;13.374;2022-11-06T11:07:23;14.90;;;7.03;;
2129;SDS011;1071;52.544;13.374;2022-11-06T11:09:51;7.50;;;6.70;;
2129;SDS011;1071;52.544;13.374;2022-11-06T11:12:21;10.00;;;8.68;;
2129;SDS011;1071;52.544;13.374;2022-11-06T11:15:03;7.30;;;6.60;;
2129;SDS011;1071;52.544;13.374;2022-11-06T11:17:37;6.88;;;5.95;;
2129;SDS011;1071;52.544;13.374;2022-11-06T11:20:18;5.50;;;4.90;;
2129;SDS011;1071;52.544;13.374;2022-11-06T11:23:06;5.28;;;4.78;;
2129;SDS011;1071;52.544;13.374;2022-11-06T11:25:39;5.32;;;4.75;;
2129;SDS011;1071;52.544;13.374;2022-11-06T11:28:13;7.38;;;6.68;;
2129;SDS011;1071;52.544;13.374;2022-11-06T11:30:52;11.65;;;7.45;;
2129;SDS011;1071;52.544;13.374;2022-11-06T11:33:23;7.57;;;5.35;;
2129;SDS011;1071;52.544;13.374;2022-11-06T11:35:52;11.00;;;8.25;;
2129;SDS011;1071;52.544;13.374;2022-11-06T11:38:19;6.93;;;5.80;;
2129;SDS011;1071;52.544;13.374;2022-11-06T11:40:48;7.70;;;5.35;;
2129;SDS011;1071;52.544;13.374;2022-11-06T11:43:21;7.30;;;5.65;;
2129;SDS011;1071;52.544;13.374;2022-11-06T11:46:03;8.35;;;5.00;;
2129;SDS011;1071;52.544;13.374;2022-11-06T11:48:41;5.32;;;4.82;;
2129;SDS011;1071;52.544;13.374;2022-11-06T11:51:10;5.50;;;4.90;;
2129;SDS011;1071;52.544;13.374;2022-11-06T11:53:41;5.07;;;4.53;;
2129;SDS011;1071;52.544;13.374;2022-11-06T11:56:12;8.57;;;7.65;;
2129;SDS011;1071;52.544;13.374;2022-11-06T11:58:52;6.50;;;4.90;;
2129;SDS011;1071;52.544;13.374;2022-11-06T12:01:28;5.78;;;5.18;;
2129;SDS011;1071;52.544;13.374;2022-11-06T12:04:00;5.85;;;5.25;;
2129;SDS011;1071;52.544;13.374;2022-11-06T12:06:49;5.85;;;5.25;;
2129;SDS011;1071;52.544;13.374;2022-11-06T12:09:18;4.20;;;3.55;;
2129;SDS011;1071;52.544;13.374;2022-11-06T12:11:45;10.07;;;8.77;;
2129;SDS011;1071;52.544;13.374;2022-11-06T12:14:22;8.27;;;6.93;;
2129;SDS011;1071;52.544;13.374;2022-11-06T12:17:01;5.88;;;5.05;;
2129;SDS011;1071;52.544;13.374;2022-11-06T12:19:33;4.82;;;4.35;;
2129;SDS011;1071;52.544;13.374;2022-11-06T12:22:03;5.38;;;4.88;;
2129;SDS011;1071;52.544;13.374;2022-11-06T12:24:40;6.40;;;4.75;;
2129;SDS011;1071;52.544;13.374;2022-11-06T12:27:12;4.57;;;4.18;;
2129;SDS011;1071;52.544;13.374;2022-11-06T12:29:44;4.65;;;4.25;;
2129;SDS011;1071;52.544;13.374;2022-11-06T12:32:17;4.13;;;3.83;;
2129;SDS011;1071;52.544;13.374;2022-11-06T12:34:53;3.95;;;3.40;;
2129;SDS011;1071;52.544;13.374;2022-11-06T12:37:30;4.05;;;3.40;;
2129;SDS011;1071;52.544;13.374;2022-11-06T12:40:11;11.98;;;9.05;;
2129;SDS011;1071;52.544;13.374;2022-11-06T12:42:46;11.02;;;8.25;;
2129;SDS011;1071;52.544;13.374;2022-11-06T12:45:28;7.28;;;5.47;;
2129;SDS011;1071;52.544;13.374;2022-11-06T12:48:12;6.57;;;5.32;;
2129;SDS011;1071;52.544;13.374;2022-11-06T12:50:48;6.45;;;5.20;;
2129;SDS011;1071;52.544;13.374;2022-11-06T12:53:27;5.60;;;4.60;;
2129;SDS011;1071;52.544;13.374;2022-11-06T12:56:06;5.57;;;4.20;;
2129;SDS011;1071;52.544;13.374;2022-11-06T12:58:50;5.57;;;3.60;;
2129;SDS011;1071;52.544;13.374;2022-11-06T13:01:31;7.47;;;4.27;;
2129;SDS011;1071;52.544;13.374;2022-11-06T13:04:24;4.38;;;3.97;;
2129;SDS011;1071;52.544;13.374;2022-11-06T13:07:33;4.85;;;3.95;;
2129;SDS011;1071;52.544;13.374;2022-11-06T13:10:18;5.10;;;3.70;;
2129;SDS011;1071;52.544;13.374;2022-11-06T13:12:58;7.35;;;3.92;;
2129;SDS011;1071;52.544;13.374;2022-11-06T13:15:39;4.78;;;3.40;;
2129;SDS011;1071;52.544;13.374;2022-11-06T13:18:13;7.35;;;3.45;;
2129;SDS011;1071;52.544;13.374;2022-11-06T13:20:47;6.47;;;4.22;;
2129;SDS011;1071;52.544;13.374;2022-11-06T13:23:18;5.80;;;4.15;;
2129;SDS011;1071;52.544;13.374;2022-11-06T13:25:52;8.65;;;5.13;;
2129;SDS011;1071;52.544;13.374;2022-11-06T13:28:30;3.47;;;2.92;;
2129;SDS011;1071;52.544;13.374;2022-11-06T13:31:01;5.10;;;4.60;;
2129;SDS011;1071;52.544;13.374;2022-11-06T13:33:33;5.10;;;4.22;;
2129;SDS011;1071;52.544;13.374;2022-11-06T13:36:04;5.05;;;4.60;;
2129;SDS011;1071;52.544;13.374;2022-11-06T13:38:33;3.07;;;2.73;;
2129;SDS011;1071;52.544;13.374;2022-11-06T13:41:05;3.83;;;3.00;;
2129;SDS011;1071;52.544;13.374;2022-11-06T13:43:39;4.22;;;2.83;;
2129;SDS011;1071;52.544;13.374;2022-11-06T13:46:11;5.20;;;3.00;;
2129;SDS011;1071;52.544;13.374;2022-11-06T13:48:47;5.15;;;3.20;;
2129;SDS011;1071;52.544;13.374;2022-11-06T13:51:24;3.20;;;2.90;;
2129;SDS011;1071;52.544;13.374;2022-11-06T13:54:02;4.07;;;3.63;;
2129;SDS011;1071;52.544;13.374;2022-11-06T13:56:42;3.70;;;3.25;;
2129;SDS011;1071;52.544;13.374;2022-11-06T13:59:37;3.27;;;2.60;;
2129;SDS011;1071;52.544;13.374;2022-11-06T14:02:34;5.13;;;3.17;;
2129;SDS011;1071;52.544;13.374;2022-11-06T14:08:16;3.50;;;3.20;;
2129;SDS011;1071;52.544;13.374;2022-11-06T14:10:49;6.07;;;4.50;;
2129;SDS011;1071;52.544;13.374;2022-11-06T14:13:30;6.25;;;5.13;;
2129;SDS011;1071;52.544;13.374;2022-11-06T14:16:00;7.10;;;4.50;;
2129;SDS011;1071;52.544;13.374;2022-11-06T14:18:30;4.18;;;3.35;;
2129;SDS011;1071;52.544;13.374;2022-11-06T14:24:16;3.95;;;3.20;;
2129;SDS011;1071;52.544;13.374;2022-11-06T14:26:55;4.38;;;3.20;;
2129;SDS011;1071;52.544;13.374;2022-11-06T14:32:33;4.43;;;3.42;;
2129;SDS011;1071;52.544;13.374;2022-11-06T14:41:01;3.83;;;3.25;;
2129;SDS011;1071;52.544;13.374;2022-11-06T14:44:16;7.82;;;4.90;;
2129;SDS011;1071;52.544;13.374;2022-11-06T14:46:53;6.07;;;3.85;;
2129;SDS011;1071;52.544;13.374;2022-11-06T14:49:26;5.45;;;4.65;;
2129;SDS011;1071;52.544;13.374;2022-11-06T14:52:02;5.15;;;3.70;;
2129;SDS011;1071;52.544;13.374;2022-11-06T14:54:31;7.28;;;6.05;;
2129;SDS011;1071;52.544;13.374;2022-11-06T14:57:02;6.35;;;5.28;;
2129;SDS011;1071;52.544;13.374;2022-11-06T14:59:31;6.30;;;4.55;;
2129;SDS011;1071;52.544;13.374;2022-11-06T15:02:01;3.27;;;2.97;;
2129;SDS011;1071;52.544;13.374;2022-11-06T15:04:41;8.05;;;3.55;;
2129;SDS011;1071;52.544;13.374;2022-11-06T15:07:25;3.90;;;2.67;;
2129;SDS011;1071;52.544;13.374;2022-11-06T15:09:58;9.40;;;3.33;;
2129;SDS011;1071;52.544;13.374;2022-11-06T15:15:35;3.08;;;2.63;;
2129;SDS011;1071;52.544;13.374;2022-11-06T15:18:07;4.40;;;3.13;;
2129;SDS011;1071;52.544;13.374;2022-11-06T15:20:37;3.95;;;2.60;;
2129;SDS011;1071;52.544;13.374;2022-11-06T15:23:08;4.25;;;3.03;;
2129;SDS011;1071;52.544;13.374;2022-11-06T15:25:44;3.50;;;3.05;;
2129;SDS011;1071;52.544;13.374;2022-11-06T15:28:18;5.78;;;3.80;;
2129;SDS011;1071;52.544;13.374;2022-11-06T15:30:49;4.35;;;3.22;;
2129;SDS011;1071;52.544;13.374;2022-11-06T15:33:21;3.17;;;2.87;;
2129;SDS011;1071;52.544;13.374;2022-11-06T15:35:53;3.78;;;2.80;;
2129;SDS011;1071;52.544;13.374;2022-11-06T15:38:24;4.47;;;3.08;;
2129;SDS011;1071;52.544;13.374;2022-11-06T15:40:53;3.53;;;3.22;;
2129;SDS011;1071;52.544;13.374;2022-11-06T15:43:27;3.20;;;2.90;;
2129;SDS011;1071;52.544;13.374;2022-11-06T15:46:16;4.18;;;3.78;;
2129;SDS011;1071;52.544;13.374;2022-11-06T15:48:45;5.63;;;4.43;;
2129;SDS011;1071;52.544;13.374;2022-11-06T15:51:20;4.95;;;3.97;;